createdAt,value
2023-07-18T00:00:41.236Z,73.03
2023-07-18T00:03:24.575Z,72.85
2023-07-18T00:06:05.161Z,71.74
2023-07-18T00:08:53.336Z,72.11
2023-07-18T00:11:40.387Z,72.26
2023-07-18T00:14:25.773Z,73.89
2023-07-18T00:17:13.273Z,73.72
2023-07-18T00:19:52.008Z,72.07
2023-07-18T00:22:36.271Z,73.09
2023-07-18T00:25:17.879Z,74.02
2023-07-18T00:28:05.353Z,74.33
2023-07-18T00:30:52.718Z,74.39
2023-07-18T00:33:37.503Z,74.95
2023-07-18T00:36:23.516Z,74.55
2023-07-18T00:38:57.657Z,74.79
2023-07-18T00:41:39.443Z,75.34
2023-07-18T00:44:22.936Z,77.13
2023-07-18T00:47:15.412Z,77.09
2023-07-18T00:50:00.426Z,75.98
2023-07-18T00:52:57.378Z,75.85
2023-07-18T00:55:44.896Z,76.39
2023-07-18T00:58:24.641Z,76.93
2023-07-18T01:01:07.396Z,75.66
2023-07-18T01:03:57.009Z,77.26
2023-07-18T01:06:39.864Z,77.22
2023-07-18T01:09:18.475Z,76.50
2023-07-18T01:11:53.509Z,76.67
2023-07-18T01:14:35.606Z,75.82
2023-07-18T01:17:17.882Z,76.48
2023-07-18T01:19:56.181Z,77.38
2023-07-18T01:22:46.672Z,75.87
2023-07-18T01:25:44.384Z,76.33
2023-07-18T01:28:17.219Z,75.65
2023-07-18T01:31:08.557Z,76.13
2023-07-18T01:34:01.184Z,75.78
2023-07-18T01:36:48.439Z,75.66
2023-07-18T01:39:30.651Z,76.31
2023-07-18T01:42:20.675Z,76.35
2023-07-18T01:45:04.485Z,76.04
2023-07-18T01:47:46.022Z,76.37
2023-07-18T01:50:33.615Z,76.47
2023-07-18T01:53:14.633Z,76.87
2023-07-18T01:56:00.252Z,76.59
2023-07-18T01:58:54.034Z,77.43
2023-07-18T02:01:39.723Z,77.03
2023-07-18T02:04:28.290Z,76.28
2023-07-18T02:07:03.799Z,77.88
2023-07-18T02:09:44.658Z,77.19
2023-07-18T02:12:25.842Z,77.97
2023-07-18T02:15:17.318Z,78.05
2023-07-18T02:17:58.928Z,78.11
2023-07-18T02:20:37.619Z,77.63
2023-07-18T02:23:19.966Z,76.71
2023-07-18T02:26:05.998Z,76.26
2023-07-18T02:28:48.800Z,76.85
2023-07-18T02:31:30.611Z,76.33
2023-07-18T02:34:06.331Z,76.01
2023-07-18T02:36:55.820Z,76.79
2023-07-18T02:39:35.232Z,76.04
2023-07-18T02:42:18.954Z,75.96
2023-07-18T02:44:58.196Z,76.92
2023-07-18T02:47:39.503Z,77.25
2023-07-18T02:50:20.972Z,76.34
2023-07-18T02:53:05.129Z,76.29
2023-07-18T02:55:48.796Z,76.52
2023-07-18T02:58:33.477Z,76.66
2023-07-18T03:01:24.725Z,76.65
2023-07-18T03:04:08.020Z,75.83
2023-07-18T03:06:49.612Z,75.73
2023-07-18T03:09:37.502Z,76.04
2023-07-18T03:12:13.405Z,76.11
2023-07-18T03:15:01.418Z,77.01
2023-07-18T03:17:46.431Z,76.48
2023-07-18T03:20:26.758Z,75.77
2023-07-18T03:23:11.639Z,75.60
2023-07-18T03:25:52.974Z,75.63
2023-07-18T03:28:33.643Z,75.77
2023-07-18T03:31:29.632Z,75.15
2023-07-18T03:34:10.989Z,75.36
2023-07-18T03:36:57.174Z,76.44
2023-07-18T03:39:43.058Z,75.69
2023-07-18T03:42:21.669Z,76.10
2023-07-18T03:45:01.286Z,75.97
2023-07-18T03:47:47.841Z,75.85
2023-07-18T03:50:34.683Z,75.70
2023-07-18T03:53:15.863Z,75.02
2023-07-18T03:55:57.511Z,76.87
2023-07-18T03:58:38.557Z,76.39
2023-07-18T04:01:21.788Z,75.96
2023-07-18T04:03:59.689Z,75.85
2023-07-18T04:06:41.488Z,76.12
2023-07-18T04:09:44.257Z,75.51
2023-07-18T04:12:35.386Z,76.40
2023-07-18T04:15:18.507Z,76.35
2023-07-18T04:18:09.659Z,76.61
2023-07-18T04:20:56.240Z,76.74
2023-07-18T04:23:40.429Z,77.05
2023-07-18T04:26:30.560Z,77.45
2023-07-18T04:29:10.924Z,78.33
2023-07-18T04:31:55.320Z,78.41
2023-07-18T04:34:39.564Z,78.91
2023-07-18T04:37:21.292Z,80.73
2023-07-18T04:40:11.270Z,78.65
2023-07-18T04:42:49.666Z,78.54
2023-07-18T04:45:31.272Z,77.35
2023-07-18T04:48:05.664Z,75.62
2023-07-18T04:50:44.640Z,74.75
2023-07-18T04:53:23.856Z,72.55
2023-07-18T04:56:15.610Z,69.45
2023-07-18T04:59:09.753Z,69.27
2023-07-18T05:01:49.460Z,67.92
2023-07-18T05:04:35.779Z,67.14
2023-07-18T05:07:08.773Z,67.72
2023-07-18T05:09:50.392Z,66.21
2023-07-18T05:12:32.526Z,64.71
2023-07-18T05:15:14.316Z,63.25
2023-07-18T05:17:56.657Z,61.60
2023-07-18T05:20:41.140Z,61.45
2023-07-18T05:23:16.946Z,57.73
2023-07-18T05:25:49.823Z,58.17
2023-07-18T05:28:21.627Z,55.24
2023-07-18T05:31:02.873Z,53.20
2023-07-18T05:33:38.571Z,52.94
2023-07-18T05:36:16.983Z,53.57
2023-07-18T05:38:52.929Z,54.21
2023-07-18T05:41:31.237Z,49.40
2023-07-18T05:44:06.789Z,49.53
2023-07-18T05:46:42.315Z,49.24
2023-07-18T05:49:13.040Z,51.21
2023-07-18T05:51:49.114Z,48.21
2023-07-18T05:54:26.713Z,49.58
2023-07-18T05:57:00.585Z,46.98
2023-07-18T05:59:29.359Z,48.63
2023-07-18T06:02:02.948Z,46.13
2023-07-18T06:04:39.820Z,45.05
2023-07-18T06:07:10.558Z,45.02
2023-07-18T06:09:43.802Z,45.42
2023-07-18T06:12:14.156Z,44.26
2023-07-18T06:17:47.044Z,42.04
2023-07-18T06:20:26.015Z,42.32
2023-07-18T06:23:04.841Z,43.48
2023-07-18T06:25:40.671Z,41.54
2023-07-18T06:28:13.357Z,41.74
2023-07-18T06:30:55.291Z,42.40
2023-07-18T06:33:34.014Z,41.00
2023-07-18T06:36:03.036Z,40.32
2023-07-18T06:38:39.339Z,40.92
2023-07-18T06:41:15.010Z,40.48
2023-07-18T06:43:53.449Z,41.26
2023-07-18T06:46:23.045Z,41.73
2023-07-18T06:49:01.183Z,41.10
2023-07-18T06:51:42.739Z,39.50
2023-07-18T06:54:20.225Z,37.66
2023-07-18T06:56:56.105Z,39.10
2023-07-18T06:59:27.561Z,39.42
2023-07-18T07:01:57.660Z,39.95
2023-07-18T07:04:38.755Z,38.09
2023-07-18T07:07:11.783Z,38.38
2023-07-18T07:09:44.980Z,38.09
2023-07-18T07:12:30.584Z,36.92
2023-07-18T07:15:06.902Z,37.83
2023-07-18T07:17:48.496Z,37.61
2023-07-18T07:20:25.970Z,37.71
2023-07-18T07:23:07.618Z,36.01
2023-07-18T07:25:43.523Z,35.53
2023-07-18T07:28:27.516Z,37.06
2023-07-18T07:30:54.873Z,35.74
2023-07-18T07:33:30.557Z,35.02
2023-07-18T07:35:58.100Z,35.64
2023-07-18T07:38:25.369Z,34.74
2023-07-18T07:41:03.539Z,34.49
2023-07-18T07:43:36.968Z,33.54
2023-07-18T07:46:15.503Z,33.33
2023-07-18T07:48:53.912Z,32.76
2023-07-18T07:51:32.126Z,33.03
2023-07-18T07:54:05.099Z,32.48
2023-07-18T07:56:32.387Z,33.14
2023-07-18T07:59:12.861Z,32.14
2023-07-18T08:01:50.694Z,32.35
2023-07-18T08:04:31.297Z,32.51
2023-07-18T08:07:12.806Z,31.31
2023-07-18T08:09:44.381Z,32.12
2023-07-18T08:12:23.342Z,30.89
2023-07-18T08:14:53.731Z,29.64
2023-07-18T08:17:34.950Z,30.14
2023-07-18T08:20:11.679Z,32.05
2023-07-18T08:22:47.969Z,30.35
2023-07-18T08:25:26.033Z,30.42
2023-07-18T08:27:55.839Z,29.40
2023-07-18T08:30:33.494Z,30.70
2023-07-18T08:33:03.914Z,30.97
2023-07-18T08:35:36.365Z,30.55
2023-07-18T08:38:11.882Z,30.86
2023-07-18T08:40:53.906Z,29.26
2023-07-18T08:43:30.601Z,29.20
2023-07-18T08:46:09.987Z,29.10
2023-07-18T08:48:49.994Z,27.49
2023-07-18T08:51:25.971Z,28.67
2023-07-18T08:53:56.437Z,29.53
2023-07-18T08:56:34.911Z,29.63
2023-07-18T08:59:19.623Z,30.39
2023-07-18T09:02:00.114Z,29.62
2023-07-18T09:04:48.540Z,30.03
2023-07-18T09:07:24.147Z,29.46
2023-07-18T09:10:09.289Z,28.10
2023-07-18T09:12:44.297Z,27.22
2023-07-18T09:15:38.872Z,27.44
2023-07-18T09:18:16.656Z,28.28
2023-07-18T09:20:55.974Z,28.00
2023-07-18T09:26:22.199Z,28.71
2023-07-18T09:28:57.148Z,26.61
2023-07-18T09:31:41.045Z,28.61
2023-07-18T09:34:15.681Z,27.66
2023-07-18T09:37:05.459Z,27.14
2023-07-18T09:39:47.997Z,26.83
2023-07-18T09:42:29.171Z,27.33
2023-07-18T09:48:00.074Z,25.47
2023-07-18T09:50:38.590Z,25.56
2023-07-18T09:53:16.979Z,26.71
2023-07-18T09:55:58.162Z,23.93
2023-07-18T09:58:40.783Z,23.93
2023-07-18T10:01:24.721Z,23.89
2023-07-18T10:04:03.678Z,23.37
2023-07-18T10:06:43.769Z,24.08
2023-07-18T10:09:19.150Z,24.02
2023-07-18T10:12:08.244Z,24.64
2023-07-18T10:14:44.773Z,23.14
2023-07-18T10:17:36.782Z,24.69
2023-07-18T10:20:31.939Z,23.78
2023-07-18T10:23:07.424Z,22.71
2023-07-18T10:25:59.800Z,23.39
2023-07-18T10:28:50.048Z,24.62
2023-07-18T10:31:32.916Z,22.74
2023-07-18T10:34:12.715Z,24.08
2023-07-18T10:36:58.268Z,24.14
2023-07-18T10:40:12.091Z,22.51
2023-07-18T10:42:47.887Z,23.07
2023-07-18T10:45:26.037Z,23.94
2023-07-18T10:48:04.348Z,22.72
2023-07-18T10:50:49.174Z,23.11
2023-07-18T10:53:22.207Z,23.05
2023-07-18T10:55:59.220Z,23.41
2023-07-18T10:58:34.880Z,23.11
2023-07-18T11:01:13.418Z,23.45
2023-07-18T11:03:55.787Z,22.21
2023-07-18T11:06:33.135Z,23.66
2023-07-18T11:09:05.831Z,23.82
2023-07-18T11:11:40.593Z,22.84
2023-07-18T11:14:18.776Z,23.68
2023-07-18T11:16:56.509Z,23.35
2023-07-18T11:19:32.136Z,23.08
2023-07-18T11:22:16.856Z,23.36
2023-07-18T11:25:04.839Z,25.17
2023-07-18T11:27:43.344Z,23.01
2023-07-18T11:30:35.623Z,23.71
2023-07-18T11:33:17.450Z,22.90
2023-07-18T11:35:52.596Z,21.74
2023-07-18T11:38:31.545Z,22.97
2023-07-18T11:41:08.325Z,23.36
2023-07-18T11:44:00.600Z,22.82
2023-07-18T11:46:42.323Z,23.77
2023-07-18T11:49:14.842Z,21.80
2023-07-18T11:51:48.443Z,22.03
2023-07-18T11:54:29.517Z,22.78
2023-07-18T11:56:56.971Z,22.47
2023-07-18T11:59:35.847Z,22.47
2023-07-18T12:02:06.203Z,23.62
2023-07-18T12:04:41.834Z,21.43
2023-07-18T12:07:18.072Z,21.92
2023-07-18T12:09:56.979Z,22.17
2023-07-18T12:12:27.448Z,22.32
2023-07-18T12:14:54.830Z,22.66
2023-07-18T12:17:31.673Z,22.92
2023-07-18T12:20:12.665Z,22.60
2023-07-18T12:22:55.347Z,24.15
2023-07-18T12:25:34.371Z,22.95
2023-07-18T12:28:09.711Z,22.42
2023-07-18T12:30:46.504Z,21.83
2023-07-18T12:33:19.326Z,22.38
2023-07-18T12:36:02.652Z,21.93
2023-07-18T12:38:41.787Z,21.82
2023-07-18T12:41:18.985Z,22.40
2023-07-18T12:44:03.163Z,22.83
2023-07-18T12:46:48.380Z,23.34
2023-07-18T12:52:02.712Z,21.25
2023-07-18T12:54:36.854Z,22.11
2023-07-18T12:57:21.013Z,22.58
2023-07-18T12:59:57.023Z,21.81
2023-07-18T13:02:38.692Z,21.45
2023-07-18T13:05:17.636Z,22.26
2023-07-18T13:07:57.704Z,21.71
2023-07-18T13:10:31.072Z,22.58
2023-07-18T13:13:02.390Z,21.32
2023-07-18T13:15:32.571Z,22.01
2023-07-18T13:18:03.277Z,22.46
2023-07-18T13:20:36.268Z,21.45
2023-07-18T13:23:09.606Z,23.56
2023-07-18T13:25:43.533Z,22.89
2023-07-18T13:28:18.976Z,22.22
2023-07-18T13:30:49.387Z,21.90
2023-07-18T13:33:19.608Z,22.18
2023-07-18T13:35:48.516Z,23.45
2023-07-18T13:38:18.933Z,21.72
2023-07-18T13:40:59.536Z,21.73
2023-07-18T13:43:30.049Z,22.56
2023-07-18T13:48:43.873Z,21.92
2023-07-18T13:51:20.283Z,21.82
2023-07-18T13:53:52.243Z,22.02
2023-07-18T13:56:34.551Z,21.61
2023-07-18T13:59:08.468Z,21.65
2023-07-18T14:01:41.249Z,22.87
2023-07-18T14:04:11.795Z,21.57
2023-07-18T14:06:47.589Z,22.20
2023-07-18T14:09:25.516Z,22.20
2023-07-18T14:11:56.986Z,22.34
2023-07-18T14:14:35.538Z,21.20
2023-07-18T14:17:09.128Z,22.01
2023-07-18T14:19:42.005Z,22.50
2023-07-18T14:22:23.613Z,22.16
2023-07-18T14:25:04.670Z,21.04
2023-07-18T14:27:40.192Z,21.41
2023-07-18T14:30:10.757Z,21.03
2023-07-18T14:32:42.951Z,21.82
2023-07-18T14:35:25.322Z,21.02
2023-07-18T14:38:02.867Z,20.69
2023-07-18T14:40:43.926Z,21.44
2023-07-18T14:43:13.124Z,21.53
2023-07-18T14:45:48.615Z,22.15
2023-07-18T14:48:26.477Z,21.91
2023-07-18T14:50:56.718Z,21.54
2023-07-18T14:53:38.814Z,21.90
2023-07-18T14:56:20.970Z,21.90
2023-07-18T14:58:54.215Z,22.46
2023-07-18T15:01:35.373Z,21.68
2023-07-18T15:04:22.879Z,23.54
2023-07-18T15:06:52.931Z,22.40
2023-07-18T15:09:31.376Z,23.41
2023-07-18T15:12:09.922Z,21.88
2023-07-18T15:14:37.880Z,22.15
2023-07-18T15:17:08.035Z,22.37
2023-07-18T15:19:43.544Z,21.92
2023-07-18T15:22:18.972Z,24.43
2023-07-18T15:25:00.537Z,22.05
2023-07-18T15:27:41.645Z,22.24
2023-07-18T15:30:17.527Z,23.93
2023-07-18T15:32:50.676Z,23.54
2023-07-18T15:35:31.253Z,23.36
2023-07-18T15:37:59.082Z,23.11
2023-07-18T15:40:27.206Z,23.89
2023-07-18T15:43:02.282Z,23.17
2023-07-18T15:45:37.996Z,22.47
2023-07-18T15:48:16.521Z,22.61
2023-07-18T15:50:53.730Z,22.99
2023-07-18T15:53:28.256Z,22.55
2023-07-18T15:56:04.064Z,24.52
2023-07-18T15:58:39.664Z,23.84
2023-07-18T16:01:12.535Z,23.04
2023-07-18T16:03:48.187Z,24.84
2023-07-18T16:06:22.026Z,24.41
2023-07-18T16:09:07.001Z,21.73
2023-07-18T16:11:39.139Z,21.52
2023-07-18T16:14:06.635Z,21.70
2023-07-18T16:16:39.023Z,20.83
2023-07-18T16:19:17.182Z,21.12
2023-07-18T16:21:52.807Z,22.58
2023-07-18T16:24:30.912Z,21.26
2023-07-18T16:27:11.913Z,23.36
2023-07-18T16:29:48.836Z,21.42
2023-07-18T16:32:19.043Z,22.60
2023-07-18T16:34:59.559Z,23.00
2023-07-18T16:37:29.035Z,21.96
2023-07-18T16:40:05.535Z,21.30
2023-07-18T16:42:41.211Z,23.16
2023-07-18T16:45:19.663Z,24.15
2023-07-18T16:47:48.733Z,22.26
2023-07-18T16:50:17.917Z,22.91
2023-07-18T16:52:55.541Z,24.09
2023-07-18T16:55:32.361Z,25.33
2023-07-18T16:58:08.533Z,24.46
2023-07-18T17:00:37.806Z,26.94
2023-07-18T17:03:16.196Z,25.85
2023-07-18T17:05:50.471Z,27.87
2023-07-18T17:08:30.276Z,29.16
2023-07-18T17:11:02.047Z,29.19
2023-07-18T17:13:37.567Z,30.28
2023-07-18T17:16:13.537Z,31.43
2023-07-18T17:18:54.018Z,31.83
2023-07-18T17:21:24.441Z,32.07
2023-07-18T17:23:55.041Z,31.85
2023-07-18T17:26:36.611Z,32.51
2023-07-18T17:29:14.178Z,33.01
2023-07-18T17:31:56.367Z,33.54
2023-07-18T17:34:34.910Z,34.75
2023-07-18T17:37:19.473Z,35.54
2023-07-18T17:39:56.483Z,35.06
2023-07-18T17:42:32.313Z,34.99
2023-07-18T17:45:07.860Z,35.08
2023-07-18T17:47:43.800Z,35.78
2023-07-18T17:50:19.487Z,35.89
2023-07-18T17:52:49.748Z,36.89
2023-07-18T17:55:27.360Z,36.80
2023-07-18T17:58:02.204Z,38.10
2023-07-18T18:00:37.766Z,38.48
2023-07-18T18:03:17.334Z,37.85
2023-07-18T18:05:52.314Z,37.70
2023-07-18T18:08:29.678Z,38.17
2023-07-18T18:11:07.748Z,37.76
2023-07-18T18:13:48.329Z,38.02
2023-07-18T18:16:31.632Z,37.91
2023-07-18T18:19:03.280Z,38.50
2023-07-18T18:21:36.217Z,39.20
2023-07-18T18:24:06.944Z,39.76
2023-07-18T18:26:40.095Z,40.94
2023-07-18T18:29:13.352Z,40.50
2023-07-18T18:31:54.338Z,40.50
2023-07-18T18:34:26.878Z,40.76
2023-07-18T18:37:10.129Z,40.23
2023-07-18T18:39:44.636Z,40.88
2023-07-18T18:42:11.992Z,40.80
2023-07-18T18:44:42.217Z,40.71
2023-07-18T18:47:25.329Z,40.64
2023-07-18T18:50:06.095Z,41.87
2023-07-18T18:52:48.975Z,40.39
2023-07-18T18:55:28.081Z,41.53
2023-07-18T18:58:12.373Z,42.34
2023-07-18T19:00:49.729Z,42.80
2023-07-18T19:03:37.297Z,42.65
2023-07-18T19:06:11.233Z,43.42
2023-07-18T19:08:40.568Z,44.33
2023-07-18T19:11:27.460Z,44.81
2023-07-18T19:14:06.677Z,45.19
2023-07-18T19:16:54.833Z,45.47
2023-07-18T19:19:33.357Z,45.89
2023-07-18T19:22:14.173Z,45.91
2023-07-18T19:24:43.593Z,45.96
2023-07-18T19:27:22.948Z,46.09
2023-07-18T19:29:53.381Z,46.96
2023-07-18T19:32:35.113Z,47.06
2023-07-18T19:35:11.106Z,47.02
2023-07-18T19:37:48.818Z,47.02
2023-07-18T19:40:27.910Z,47.21
2023-07-18T19:43:03.974Z,45.51
2023-07-18T19:45:52.000Z,44.45
2023-07-18T19:48:32.138Z,44.74
2023-07-18T19:51:05.394Z,45.65
2023-07-18T19:53:41.277Z,45.87
2023-07-18T19:56:19.893Z,45.04
2023-07-18T19:58:55.586Z,44.87
2023-07-18T20:01:25.870Z,45.50
2023-07-18T20:04:03.219Z,45.49
2023-07-18T20:06:41.698Z,45.98
2023-07-18T20:09:14.694Z,45.94
2023-07-18T20:11:49.483Z,46.98
2023-07-18T20:14:27.877Z,47.06
2023-07-18T20:16:58.335Z,46.88
2023-07-18T20:19:36.860Z,46.85
2023-07-18T20:22:11.318Z,47.20
2023-07-18T20:24:46.951Z,46.92
2023-07-18T20:27:19.641Z,46.85
2023-07-18T20:29:50.095Z,46.90
2023-07-18T20:32:30.120Z,47.97
2023-07-18T20:35:03.652Z,48.05
2023-07-18T20:37:40.057Z,47.32
2023-07-18T20:40:23.952Z,47.56
2023-07-18T20:43:05.828Z,47.35
2023-07-18T20:46:01.930Z,46.87
2023-07-18T20:48:40.766Z,47.61
2023-07-18T20:51:11.298Z,48.13
2023-07-18T20:53:49.790Z,47.84
2023-07-18T20:56:25.536Z,47.78
2023-07-18T20:59:00.735Z,48.36
2023-07-18T21:01:35.878Z,48.23
2023-07-18T21:04:14.938Z,48.86
2023-07-18T21:06:50.639Z,50.02
2023-07-18T21:09:39.826Z,49.54
2023-07-18T21:12:10.355Z,49.75
2023-07-18T21:14:40.634Z,50.26
2023-07-18T21:17:19.708Z,50.45
2023-07-18T21:20:06.640Z,50.42
2023-07-18T21:22:42.341Z,50.76
2023-07-18T21:25:23.425Z,50.85
2023-07-18T21:28:03.964Z,52.05
2023-07-18T21:30:41.871Z,52.14
2023-07-18T21:33:26.891Z,52.57
2023-07-18T21:35:56.774Z,53.85
2023-07-18T21:38:36.632Z,53.40
2023-07-18T21:41:12.373Z,53.24
2023-07-18T21:44:01.337Z,53.99
2023-07-18T21:46:40.771Z,54.98
2023-07-18T21:49:11.399Z,54.70
2023-07-18T21:51:46.396Z,53.82
2023-07-18T21:54:17.510Z,53.51
2023-07-18T21:56:50.028Z,53.71
2023-07-18T21:59:28.717Z,54.42
2023-07-18T22:02:07.623Z,53.11
2023-07-18T22:04:43.076Z,53.85
2023-07-18T22:07:25.959Z,54.17
2023-07-18T22:10:06.643Z,55.01
2023-07-18T22:12:45.721Z,54.69
2023-07-18T22:15:20.802Z,54.90
2023-07-18T22:18:15.846Z,55.09
2023-07-18T22:20:57.033Z,55.41
2023-07-18T22:23:35.585Z,55.88
2023-07-18T22:26:14.836Z,56.96
2023-07-18T22:28:59.388Z,57.12
2023-07-18T22:31:32.392Z,57.20
2023-07-18T22:34:07.954Z,57.72
2023-07-18T22:36:46.640Z,57.87
2023-07-18T22:39:34.658Z,57.52
2023-07-18T22:42:20.796Z,57.51
2023-07-18T22:44:48.962Z,58.30
2023-07-18T22:47:24.743Z,58.17
2023-07-18T22:49:57.141Z,58.06
2023-07-18T22:52:37.283Z,58.19
2023-07-18T22:55:14.795Z,57.95
2023-07-18T22:58:00.655Z,57.73
2023-07-18T23:00:35.970Z,57.00
2023-07-18T23:03:13.983Z,57.03
2023-07-18T23:05:45.773Z,57.16
2023-07-18T23:08:16.165Z,59.00
2023-07-18T23:11:00.064Z,61.43
2023-07-18T23:13:38.611Z,61.17
2023-07-18T23:16:14.145Z,59.65
2023-07-18T23:18:55.918Z,60.23
2023-07-18T23:21:33.779Z,59.93
2023-07-18T23:24:01.127Z,62.06
2023-07-18T23:26:33.616Z,61.32
2023-07-18T23:29:18.306Z,60.63
2023-07-18T23:31:51.695Z,60.59
2023-07-18T23:34:34.831Z,61.13
2023-07-18T23:37:13.651Z,60.88
2023-07-18T23:39:54.487Z,60.92
2023-07-18T23:42:36.168Z,60.62
2023-07-18T23:45:09.070Z,60.72
2023-07-18T23:47:47.503Z,60.73
2023-07-18T23:50:20.464Z,60.96
2023-07-18T23:52:58.394Z,60.63
2023-07-18T23:55:37.003Z,60.80
2023-07-18T23:58:15.517Z,61.26
